Terminal Aerodrome Forecast
Issued by NWS

Home | Current Version | Previous Version | Text Only | Print | Product List | Glossary On
Versions: 1 2 3 4 5 6 7 8 9 10 11 12 13 14 15
000
FTUS45 KRIW 260500
TAFWRL
TAF
KWRL 260527Z 2606/2706 26006KT 3SM -SN OVC040
     FM260900 30006KT P6SM -SN OVC040
     FM261200 VRB04KT P6SM VCSH BKN040
     FM261600 VRB04KT P6SM BKN040
     FM270200 VRB04KT P6SM VCSH BKN040=

USA.gov is the U.S. government's official web portal to all federal, state and local government web resources and services.